createdAt,value
2022-10-18T02:50:51.439Z,16.30
2022-10-18T02:53:20.591Z,16.30
2022-10-18T02:55:49.256Z,16.30
2022-10-18T02:58:18.524Z,16.30
2022-10-18T03:00:47.196Z,16.30
2022-10-18T03:03:15.707Z,16.30
2022-10-18T03:05:44.016Z,16.20
2022-10-18T03:08:14.013Z,16.20
2022-10-18T03:10:44.996Z,16.20
2022-10-18T03:13:14.255Z,16.20
2022-10-18T03:15:43.646Z,16.10
2022-10-18T03:18:12.131Z,16.10
2022-10-18T03:20:40.457Z,16.10
2022-10-18T03:23:08.959Z,16.10
2022-10-18T03:25:40.575Z,16.00
2022-10-18T03:28:11.432Z,16.00
2022-10-18T03:30:40.399Z,16.00
2022-10-18T03:33:08.842Z,15.90
2022-10-18T03:35:37.910Z,15.90
2022-10-18T03:38:06.429Z,15.90
2022-10-18T03:40:35.104Z,15.90
2022-10-18T03:43:05.224Z,15.80
2022-10-18T03:45:33.894Z,15.80
2022-10-18T03:48:02.433Z,15.80
2022-10-18T03:50:30.912Z,15.80
2022-10-18T03:52:59.354Z,15.80
2022-10-18T03:55:27.830Z,15.80
2022-10-18T03:57:56.266Z,15.80
2022-10-18T04:00:26.284Z,15.70
2022-10-18T04:02:55.950Z,14.70
2022-10-18T04:05:27.037Z,15.60
2022-10-18T04:07:55.698Z,15.60
2022-10-18T04:10:24.810Z,15.50
2022-10-18T04:12:53.267Z,15.50
2022-10-18T04:15:22.089Z,15.50
2022-10-18T04:17:51.747Z,15.50
2022-10-18T04:20:20.093Z,15.40
2022-10-18T04:22:50.143Z,15.50
2022-10-18T04:25:18.692Z,15.40
2022-10-18T04:27:46.912Z,15.40
2022-10-18T04:30:15.431Z,15.40
2022-10-18T04:32:43.664Z,15.40
2022-10-18T04:35:13.390Z,15.30
2022-10-18T04:37:41.686Z,15.30
2022-10-18T04:40:11.317Z,14.00
2022-10-18T04:42:39.603Z,15.30
2022-10-18T04:45:08.976Z,15.30
2022-10-18T04:47:37.293Z,15.30
2022-10-18T04:50:06.850Z,15.30
2022-10-18T04:52:36.618Z,15.30
2022-10-18T04:55:05.675Z,15.20
2022-10-18T04:57:34.440Z,15.20
2022-10-18T05:00:05.105Z,15.20
2022-10-18T05:02:33.789Z,15.20
2022-10-18T05:05:02.381Z,15.20
2022-10-18T05:07:30.670Z,15.20
2022-10-18T05:10:00.462Z,15.20
2022-10-18T05:12:28.742Z,15.20
2022-10-18T05:14:57.120Z,15.20
2022-10-18T05:17:25.444Z,15.20
2022-10-18T05:19:53.804Z,15.20
2022-10-18T05:22:22.114Z,15.10
2022-10-18T05:24:50.459Z,15.10
2022-10-18T05:27:21.018Z,15.10
2022-10-18T05:29:49.656Z,15.10
2022-10-18T05:32:18.866Z,15.10
2022-10-18T05:34:47.460Z,15.10
2022-10-18T05:37:16.057Z,15.10
2022-10-18T05:39:44.502Z,15.10
2022-10-18T05:42:12.988Z,15.10
2022-10-18T05:44:43.255Z,15.10
2022-10-18T05:47:11.614Z,15.10
2022-10-18T05:49:40.093Z,15.10
2022-10-18T05:52:08.486Z,15.00
2022-10-18T05:54:36.796Z,15.00
2022-10-18T05:57:05.278Z,15.00
2022-10-18T05:59:33.661Z,15.00
2022-10-18T06:02:03.641Z,15.00
2022-10-18T06:04:32.043Z,15.00
2022-10-18T06:07:00.509Z,15.00
2022-10-18T06:09:30.772Z,15.00
2022-10-18T06:11:59.057Z,15.00
2022-10-18T06:14:27.644Z,15.00
2022-10-18T06:16:56.925Z,14.90
2022-10-18T06:19:26.609Z,14.90
2022-10-18T06:21:54.886Z,14.90
2022-10-18T06:24:23.326Z,14.90
2022-10-18T06:26:51.681Z,15.00
2022-10-18T06:29:19.941Z,15.00
2022-10-18T06:31:48.297Z,15.00
2022-10-18T06:34:16.762Z,15.00
2022-10-18T06:36:46.613Z,15.00
2022-10-18T06:39:16.544Z,15.00
2022-10-18T06:41:44.916Z,14.90
2022-10-18T06:44:15.171Z,14.90
2022-10-18T06:46:43.537Z,15.00
2022-10-18T06:49:14.103Z,15.00
2022-10-18T06:51:46.974Z,15.10
2022-10-18T06:54:18.382Z,15.20
2022-10-18T06:56:48.187Z,15.20
2022-10-18T06:59:16.786Z,15.30
2022-10-18T07:01:45.247Z,15.30
2022-10-18T07:04:13.790Z,15.20
2022-10-18T07:06:42.207Z,15.20
2022-10-18T07:09:12.135Z,15.20
2022-10-18T07:11:40.642Z,15.20
2022-10-18T07:14:12.718Z,15.20
2022-10-18T07:16:44.668Z,15.20
2022-10-18T07:19:13.059Z,15.30
2022-10-18T07:21:41.643Z,15.30
2022-10-18T07:24:11.466Z,15.30
2022-10-18T07:26:39.863Z,15.30
2022-10-18T07:29:11.060Z,15.30
2022-10-18T07:31:41.118Z,15.30
2022-10-18T07:34:12.604Z,15.30
2022-10-18T07:36:41.218Z,15.40
2022-10-18T07:39:09.582Z,15.40
2022-10-18T07:41:39.874Z,15.40
2022-10-18T07:44:08.309Z,15.40
2022-10-18T07:46:36.957Z,15.30
2022-10-18T07:49:05.267Z,15.30
2022-10-18T07:51:34.925Z,15.30
2022-10-18T07:54:03.456Z,15.30
2022-10-18T07:56:31.902Z,15.30
2022-10-18T07:59:01.801Z,15.30
2022-10-18T08:01:30.463Z,15.20
2022-10-18T08:04:06.076Z,15.20
2022-10-18T08:06:35.642Z,15.20
2022-10-18T08:09:04.154Z,15.20
2022-10-18T08:11:32.867Z,15.20
2022-10-18T08:14:02.443Z,15.10
2022-10-18T08:19:05.999Z,15.20
2022-10-18T08:21:34.459Z,15.30
2022-10-18T08:24:03.055Z,15.30
2022-10-18T08:26:31.594Z,15.30
2022-10-18T08:29:17.427Z,15.20
2022-10-18T08:31:47.788Z,15.30
2022-10-18T08:34:19.659Z,15.30
2022-10-18T08:36:48.489Z,15.30
2022-10-18T08:39:16.841Z,15.30
2022-10-18T08:42:15.229Z,15.40
2022-10-18T08:44:46.983Z,15.40
2022-10-18T08:47:19.891Z,15.40
2022-10-18T08:49:51.750Z,15.30
2022-10-18T08:52:32.171Z,15.20
2022-10-18T08:55:04.948Z,15.20
2022-10-18T08:57:34.815Z,15.10
2022-10-18T09:00:05.282Z,15.10
2022-10-18T09:02:50.817Z,15.10
2022-10-18T09:05:29.165Z,15.20
2022-10-18T09:08:23.837Z,15.30
2022-10-18T09:11:00.010Z,15.20
2022-10-18T09:13:52.215Z,15.30
2022-10-18T09:16:23.319Z,15.30
2022-10-18T09:19:04.477Z,15.30
2022-10-18T09:21:44.206Z,15.30
2022-10-18T09:24:15.240Z,15.30
2022-10-18T09:26:46.964Z,15.30
2022-10-18T09:29:31.647Z,15.20
2022-10-18T09:32:08.935Z,15.20
2022-10-18T09:34:44.182Z,15.20
2022-10-18T09:37:14.908Z,15.20
2022-10-18T09:39:44.273Z,15.10
2022-10-18T09:42:19.494Z,15.10
2022-10-18T09:44:52.518Z,15.10
2022-10-18T09:47:26.195Z,15.10
2022-10-18T09:50:00.473Z,15.20
2022-10-18T09:52:38.586Z,15.10
2022-10-18T09:55:14.941Z,15.20
2022-10-18T09:57:47.754Z,15.30
2022-10-18T10:00:19.716Z,15.30
2022-10-18T10:02:48.275Z,15.40
2022-10-18T10:05:18.227Z,15.40
2022-10-18T10:07:49.684Z,15.30
2022-10-18T10:10:22.617Z,15.30
2022-10-18T10:13:05.086Z,15.30
2022-10-18T10:15:38.302Z,15.20
2022-10-18T10:18:21.582Z,15.10
2022-10-18T10:20:54.947Z,15.10
2022-10-18T10:23:26.705Z,15.10
2022-10-18T10:25:57.620Z,15.00
2022-10-18T10:28:30.195Z,15.00
2022-10-18T10:31:19.794Z,15.00
2022-10-18T10:33:49.194Z,15.00
2022-10-18T10:36:23.048Z,15.00
2022-10-18T10:39:06.768Z,15.00
2022-10-18T10:41:35.947Z,15.00
2022-10-18T10:44:15.394Z,15.10
2022-10-18T10:46:44.267Z,15.10
2022-10-18T10:49:39.559Z,15.10
2022-10-18T10:52:28.033Z,15.20
2022-10-18T10:55:06.090Z,15.20
2022-10-18T10:57:47.486Z,15.30
2022-10-18T11:00:37.001Z,15.20
2022-10-18T11:03:27.943Z,15.20
2022-10-18T11:06:00.521Z,15.30
2022-10-18T11:08:39.340Z,15.40
2022-10-18T11:11:22.915Z,15.40
2022-10-18T11:14:07.290Z,15.50
2022-10-18T11:16:56.344Z,15.50
2022-10-18T11:19:35.681Z,15.50
2022-10-18T11:22:07.206Z,15.50
2022-10-18T11:24:38.185Z,15.50
2022-10-18T11:27:12.013Z,15.40
2022-10-18T11:30:02.178Z,15.40
2022-10-18T11:32:43.390Z,15.40
2022-10-18T11:35:27.708Z,15.40
2022-10-18T11:38:13.231Z,15.50
2022-10-18T11:40:57.851Z,15.60
2022-10-18T11:43:57.005Z,15.70
2022-10-18T11:46:35.027Z,15.70
2022-10-18T11:49:28.974Z,15.70
2022-10-18T11:52:08.709Z,15.60
2022-10-18T11:54:57.873Z,15.70
2022-10-18T11:57:51.542Z,15.70
2022-10-18T12:00:39.619Z,15.70
2022-10-18T12:03:23.715Z,15.60
2022-10-18T12:05:55.406Z,15.80
2022-10-18T12:08:30.592Z,15.70
2022-10-18T12:11:06.274Z,15.50
2022-10-18T12:13:42.304Z,15.70
2022-10-18T12:16:12.557Z,15.70
2022-10-18T12:21:30.521Z,15.60
2022-10-18T12:24:04.562Z,15.60
2022-10-18T12:26:36.094Z,15.60
2022-10-18T12:29:18.618Z,15.60
2022-10-18T12:31:52.614Z,15.70
2022-10-18T12:34:33.228Z,15.80
2022-10-18T12:37:31.457Z,15.70
2022-10-18T12:40:14.582Z,15.70
2022-10-18T12:42:48.807Z,15.70
2022-10-18T12:45:33.287Z,15.70
2022-10-18T12:48:03.514Z,15.80
2022-10-18T12:50:37.300Z,15.90
2022-10-18T12:53:18.982Z,15.90
2022-10-18T12:55:49.696Z,16.00
2022-10-18T12:58:32.811Z,16.00
2022-10-18T13:01:08.362Z,15.90
2022-10-18T13:03:59.298Z,15.80
2022-10-18T13:07:06.152Z,15.90
2022-10-18T13:09:36.356Z,16.00
2022-10-18T13:12:37.861Z,16.00
2022-10-18T13:15:25.892Z,16.10
2022-10-18T13:18:02.917Z,16.00
2022-10-18T13:20:39.041Z,16.00
2022-10-18T13:23:26.263Z,16.00
2022-10-18T13:26:03.115Z,15.90
2022-10-18T13:28:41.273Z,16.00
2022-10-18T13:31:19.935Z,16.10
2022-10-18T13:33:50.004Z,16.10
2022-10-18T13:36:26.837Z,16.20
2022-10-18T13:39:05.761Z,16.10
2022-10-18T13:42:21.376Z,16.10
2022-10-18T13:44:49.749Z,16.20
2022-10-18T13:47:35.096Z,16.30
2022-10-18T13:50:37.670Z,16.50
2022-10-18T13:53:46.139Z,16.50
2022-10-18T13:56:38.089Z,16.70
2022-10-18T13:59:22.840Z,16.80
2022-10-18T14:02:15.081Z,16.50
2022-10-18T14:05:16.544Z,16.30
2022-10-18T14:07:51.909Z,16.10
2022-10-18T14:10:43.619Z,16.00
2022-10-18T14:13:22.722Z,16.00
2022-10-18T14:15:56.858Z,16.20
2022-10-18T14:18:31.915Z,16.40
2022-10-18T14:21:14.569Z,16.40
2022-10-18T14:23:46.730Z,16.40
2022-10-18T14:26:17.636Z,16.60
2022-10-18T14:28:59.664Z,16.70
2022-10-18T14:31:28.891Z,16.60
2022-10-18T14:33:59.087Z,16.40
2022-10-18T14:36:32.340Z,16.50
2022-10-18T14:39:03.730Z,16.60
2022-10-18T14:41:34.050Z,16.70
2022-10-18T14:44:19.698Z,16.70
2022-10-18T14:46:51.460Z,16.60
2022-10-18T14:49:21.628Z,16.50
2022-10-18T14:51:53.048Z,16.40
2022-10-18T14:54:32.147Z,16.40
2022-10-18T14:57:02.205Z,16.30
2022-10-18T14:59:34.700Z,16.20
2022-10-18T15:02:06.054Z,16.00
2022-10-18T15:04:34.654Z,15.90
2022-10-18T15:07:05.136Z,15.60
2022-10-18T15:09:38.262Z,15.50
2022-10-18T15:12:08.489Z,15.40
2022-10-18T15:14:38.194Z,15.30
2022-10-18T15:17:14.404Z,15.30
2022-10-18T15:19:57.663Z,15.20
2022-10-18T15:22:33.047Z,15.10
2022-10-18T15:25:19.591Z,15.00
2022-10-18T15:27:50.687Z,15.00
2022-10-18T15:30:28.368Z,14.10
2022-10-18T15:32:58.629Z,14.80
2022-10-18T15:35:30.788Z,14.80
2022-10-18T15:38:03.777Z,14.60
2022-10-18T15:40:42.281Z,14.60
2022-10-18T15:43:37.442Z,14.50
2022-10-18T15:46:08.017Z,14.40
2022-10-18T15:48:39.258Z,14.40
2022-10-18T15:51:09.466Z,14.30
2022-10-18T15:53:45.859Z,14.20
2022-10-18T15:56:35.594Z,14.10
2022-10-18T15:59:06.564Z,14.00
2022-10-18T16:01:38.385Z,13.90
2022-10-18T16:04:12.554Z,13.80
2022-10-18T16:06:41.201Z,13.80
2022-10-18T16:09:17.953Z,13.70
2022-10-18T16:11:56.360Z,13.60
2022-10-18T16:14:27.147Z,13.50
2022-10-18T16:17:02.167Z,13.50
2022-10-18T16:19:32.397Z,13.30
2022-10-18T16:22:06.429Z,13.20
2022-10-18T16:24:35.435Z,13.20
2022-10-18T16:27:06.198Z,13.10
2022-10-18T16:29:35.191Z,13.10
2022-10-18T16:32:03.792Z,13.00
2022-10-18T16:34:33.079Z,13.00
2022-10-18T16:37:01.781Z,13.00
2022-10-18T16:39:35.056Z,12.90
2022-10-18T16:42:04.938Z,12.90
2022-10-18T16:44:33.526Z,12.80
2022-10-18T16:47:01.923Z,12.80
2022-10-18T16:49:30.663Z,12.70
2022-10-18T16:51:59.944Z,12.70
2022-10-18T16:54:29.622Z,12.70
2022-10-18T16:56:58.116Z,12.60
2022-10-18T16:59:30.491Z,12.60
2022-10-18T17:02:01.900Z,12.60
2022-10-18T17:04:30.461Z,12.60
2022-10-18T17:06:59.995Z,12.60
2022-10-18T17:09:28.783Z,12.60
2022-10-18T17:11:57.199Z,12.50
2022-10-18T17:14:25.738Z,12.50
2022-10-18T17:16:57.239Z,12.50
2022-10-18T17:19:25.758Z,12.40
2022-10-18T17:21:56.033Z,12.40
2022-10-18T17:24:28.427Z,12.30
2022-10-18T17:26:56.844Z,12.30
2022-10-18T17:29:25.265Z,12.30
2022-10-18T17:31:55.081Z,12.20
2022-10-18T17:34:23.469Z,12.20
2022-10-18T17:36:51.877Z,12.20
2022-10-18T17:39:22.762Z,12.20
2022-10-18T17:41:52.764Z,12.20
2022-10-18T17:44:21.232Z,12.20
2022-10-18T17:46:49.812Z,12.10
2022-10-18T17:49:19.761Z,12.10
2022-10-18T17:51:48.286Z,12.10
2022-10-18T17:54:16.873Z,12.10
2022-10-18T17:56:45.339Z,12.00
2022-10-18T17:59:13.651Z,12.00
2022-10-18T18:01:43.100Z,12.00
2022-10-18T18:04:11.965Z,12.00
2022-10-18T18:06:41.804Z,12.00
2022-10-18T18:09:13.312Z,11.90
2022-10-18T18:11:43.646Z,11.90
2022-10-18T18:14:12.736Z,11.90
2022-10-18T18:16:43.388Z,11.80
2022-10-18T18:19:12.502Z,11.80
2022-10-18T18:21:43.608Z,11.80
2022-10-18T18:24:14.273Z,11.70
2022-10-18T18:26:43.964Z,11.70
2022-10-18T18:29:14.717Z,11.70
2022-10-18T18:31:43.795Z,11.70
2022-10-18T18:34:12.842Z,11.70
2022-10-18T18:36:42.954Z,11.60
2022-10-18T18:39:20.020Z,11.60
2022-10-18T18:41:50.790Z,11.60
2022-10-18T18:44:20.340Z,11.60
2022-10-18T18:46:49.828Z,11.60
2022-10-18T18:49:18.482Z,11.50
2022-10-18T18:51:48.519Z,12.50
2022-10-18T18:54:17.623Z,11.50
2022-10-18T18:56:45.968Z,11.50
2022-10-18T18:59:16.155Z,11.50
2022-10-18T19:01:46.062Z,11.40
2022-10-18T19:04:14.884Z,11.40
2022-10-18T19:06:45.830Z,11.40
2022-10-18T19:09:22.267Z,11.40
2022-10-18T19:11:52.492Z,11.30
2022-10-18T19:16:59.114Z,11.30
2022-10-18T19:19:29.165Z,11.20
2022-10-18T19:21:59.292Z,11.20
2022-10-18T19:24:31.488Z,11.20
2022-10-18T19:27:01.233Z,11.10
2022-10-18T19:29:32.495Z,11.10
2022-10-18T19:32:02.965Z,11.00
2022-10-18T19:34:34.451Z,11.00
2022-10-18T19:37:03.397Z,11.00
2022-10-18T19:39:35.646Z,10.90
2022-10-18T19:42:06.099Z,10.90
2022-10-18T19:44:36.058Z,10.80
2022-10-18T19:47:05.824Z,10.80
2022-10-18T19:49:34.265Z,10.70
2022-10-18T19:52:02.787Z,10.70
2022-10-18T19:54:32.739Z,10.70
2022-10-18T19:57:01.240Z,10.60
2022-10-18T19:59:29.772Z,10.60
2022-10-18T20:02:00.865Z,10.60
2022-10-18T20:04:34.225Z,10.60
2022-10-18T20:07:03.806Z,10.60
2022-10-18T20:09:34.204Z,10.60
2022-10-18T20:12:02.617Z,10.60
2022-10-18T20:14:31.082Z,10.60
2022-10-18T20:16:59.558Z,9.90
2022-10-18T20:19:30.065Z,10.50
2022-10-18T20:21:59.076Z,10.40
2022-10-18T20:24:29.537Z,10.40
2022-10-18T20:27:00.513Z,10.30
2022-10-18T20:29:30.513Z,10.30
2022-10-18T20:32:00.038Z,10.30
2022-10-18T20:34:29.155Z,10.30
2022-10-18T20:36:58.437Z,10.20
2022-10-18T20:39:33.698Z,10.20
2022-10-18T20:42:03.421Z,10.20
2022-10-18T20:44:34.043Z,10.10
2022-10-18T20:47:02.467Z,10.10
2022-10-18T20:49:31.037Z,10.10
2022-10-18T20:52:02.110Z,10.00
2022-10-18T20:54:30.476Z,10.00
2022-10-18T20:56:59.531Z,10.00
2022-10-18T20:59:29.947Z,9.90
2022-10-18T21:01:58.461Z,9.90
2022-10-18T21:04:27.356Z,9.90
2022-10-18T21:06:55.916Z,9.70
2022-10-18T21:09:24.389Z,9.80
2022-10-18T21:11:56.397Z,9.80
2022-10-18T21:14:25.799Z,9.80
2022-10-18T21:16:55.527Z,9.70
2022-10-18T21:19:26.642Z,9.70
2022-10-18T21:21:57.579Z,9.60
2022-10-18T21:24:27.238Z,9.60
2022-10-18T21:26:55.868Z,9.60
2022-10-18T21:29:25.876Z,9.60
2022-10-18T21:32:00.106Z,9.60
2022-10-18T21:34:28.635Z,9.60
2022-10-18T21:36:57.591Z,9.60
2022-10-18T21:39:26.109Z,11.10
2022-10-18T21:41:54.538Z,9.60
2022-10-18T21:44:23.004Z,9.60
2022-10-18T21:46:51.595Z,9.60
2022-10-18T21:49:25.158Z,9.60
2022-10-18T21:51:53.589Z,9.60
2022-10-18T21:54:21.992Z,9.60
2022-10-18T21:56:51.206Z,9.50
2022-10-18T21:59:19.586Z,9.50
2022-10-18T22:01:47.887Z,9.50
2022-10-18T22:04:22.566Z,9.50
2022-10-18T22:06:50.996Z,9.40
2022-10-18T22:09:19.907Z,9.40
2022-10-18T22:11:52.096Z,9.40
2022-10-18T22:14:20.863Z,9.40
2022-10-18T22:16:49.251Z,9.30
2022-10-18T22:19:20.820Z,9.30
2022-10-18T22:21:49.265Z,9.30
2022-10-18T22:24:18.521Z,9.30
2022-10-18T22:26:47.869Z,9.40
2022-10-18T22:29:18.015Z,9.40
2022-10-18T22:31:48.682Z,9.50
2022-10-18T22:34:19.578Z,9.50
2022-10-18T22:36:49.492Z,9.60
2022-10-18T22:39:18.722Z,9.60
2022-10-18T22:41:52.237Z,9.70
2022-10-18T22:44:20.461Z,9.70
2022-10-18T22:46:48.745Z,9.70
2022-10-18T22:49:17.280Z,9.70
